Christialou — FI8820 — position and weather

sailwx.info

Track history (hours):
 
Tides and Currents Weather Stations Pressure Air Temp Water Temp Dewpoint Dewpoint Depression Visibility Wind Speed Wind Dir Waves Ship Positions

Christialou

Last reported at 2018-Jun-25 11:24 UTC. Time now 2018-Jun-25 15:53 UTC.
Position N 47°44' W 003°22'.

Length 9 m.

Type: Fishing. MMSI: 227629670.

Date/timePositionNaut miles runAvg speedWind from/ knotsBaromVisibWave heightAir tempDewpointWater temp
2018-Jun-25 11:24N 47°44' W 003°22'0 0.1
2018-Jun-25 11:00N 47°44' W 003°22'4 7.1
2018-Jun-25 10:28N 47°41' W 003°26'5 1.3
2018-Jun-25 06:58N 47°37' W 003°29'1 1.5
2018-Jun-25 06:28N 47°37' W 003°27'3 3.4
2018-Jun-25 05:41N 47°36' W 003°31'1 3.4
2018-Jun-25 05:23N 47°37' W 003°30'1 2.4
2018-Jun-25 04:58N 47°36' W 003°31'6 2.3
2018-Jun-25 02:24N 47°41' W 003°27'3 7.9
2018-Jun-25 02:00N 47°42' W 003°23'2 0.1
2018-Jun-23 12:23N 47°44' W 003°22'0 0.1
2018-Jun-23 11:59N 47°44' W 003°22'3 6.9
2018-Jun-23 11:30N 47°41' W 003°25'2 0.5
2018-Jun-23 07:38N 47°41' W 003°28'1 8.5
2018-Jun-23 07:28N 47°40' W 003°26'3 5.8
2018-Jun-23 07:00N 47°37' W 003°24'1 1.0
2018-Jun-23 06:24N 47°37' W 003°25'1 2.7
2018-Jun-23 06:00N 47°37' W 003°27'5 1.3
2018-Jun-23 02:34N 47°41' W 003°30'2 6.2
2018-Jun-23 02:18N 47°42' W 003°28'1 3.4
2018-Jun-23 02:00N 47°41' W 003°28'4 8.1
2018-Jun-23 01:30N 47°42' W 003°22'2 0.1
2018-Jun-22 11:45N 47°44' W 003°22'0 0.2
2018-Jun-22 11:30N 47°44' W 003°22'3 6.5
2018-Jun-22 11:00N 47°41' W 003°25'6 2.0
2018-Jun-22 08:02N 47°37' W 003°30'0 6.3
2018-Jun-22 07:59N 47°37' W 003°30'2 2.5
2018-Jun-22 07:14N 47°36' W 003°27'0 0.2
2018-Jun-22 06:58N 47°37' W 003°27'2 4.9
2018-Jun-22 06:30N 47°38' W 003°24'0 0.6
2018-Jun-22 05:59N 47°37' W 003°25'3 6.2
2018-Jun-22 05:28N 47°41' W 003°26'4 1.2
2018-Jun-22 02:18N 47°40' W 003°31'2 8.1
2018-Jun-22 02:00N 47°41' W 003°28'4 8.3
2018-Jun-22 01:30N 47°42' W 003°22'2 0.1
2018-Jun-21 12:26N 47°44' W 003°22'0 1.1
2018-Jun-21 12:00N 47°43' W 003°22'3 6.7
2018-Jun-21 11:29N 47°41' W 003°26'4 1.5
2018-Jun-21 08:45N 47°37' W 003°28'1 2.8
2018-Jun-21 08:29N 47°37' W 003°27'1 1.6
2018-Jun-21 07:57N 47°36' W 003°26'1 1.7
2018-Jun-21 07:29N 47°37' W 003°25'0 0.8
2018-Jun-21 07:00N 47°37' W 003°25'4 1.0
2018-Jun-21 02:48N 47°40' W 003°28'3 8.7
2018-Jun-21 02:29N 47°41' W 003°25'3 6.1
2018-Jun-21 02:00N 47°44' W 003°22'0 0.0
2018-Jun-20 11:46N 47°44' W 003°22'0 0.2
2018-Jun-20 11:28N 47°44' W 003°22'2 5.1
2018-Jun-20 11:00N 47°42' W 003°23'6 2.2
2018-Jun-20 08:19N 47°36' W 003°28'1 2.7
2018-Jun-20 08:00N 47°36' W 003°27'0 0.7
2018-Jun-20 07:31N 47°36' W 003°26'2 3.1
2018-Jun-20 06:59N 47°38' W 003°25'0 0.4
2018-Jun-20 06:28N 47°38' W 003°24'5 3.4
2018-Jun-20 04:54N 47°41' W 003°30'1 0.7
2018-Jun-20 03:11N 47°40' W 003°31'1 7.8
2018-Jun-20 03:00N 47°40' W 003°29'4 7.6
2018-Jun-20 02:30N 47°42' W 003°24'2 4.7
2018-Jun-20 02:00N 47°44' W 003°22'0 0.0
2018-Jun-19 12:46N 47°44' W 003°22'0 0.0
2018-Jun-19 12:30N 47°44' W 003°22'1 2.7
2018-Jun-19 11:59N 47°42' W 003°22'4 5.8
2018-Jun-19 11:18N 47°41' W 003°28'1 0.5
2018-Jun-19 08:34N 47°41' W 003°30'0 3.6
2018-Jun-19 08:30N 47°41' W 003°29'3 5.1
2018-Jun-19 07:53N 47°39' W 003°25'1 3.7
2018-Jun-19 07:30N 47°38' W 003°25'0 0.8
2018-Jun-19 06:57N 47°37' W 003°25'1 2.5
2018-Jun-19 06:30N 47°37' W 003°27'3 3.0
2018-Jun-19 05:35N 47°36' W 003°30'5 2.0
2018-Jun-19 03:08N 47°41' W 003°29'1 7.5
2018-Jun-19 02:59N 47°40' W 003°28'2 3.4
2018-Jun-19 02:29N 47°42' W 003°28'3 6.7
2018-Jun-19 02:00N 47°42' W 003°23'  
2018-Jun-16 11:29N 47°44' W 003°22'1 1.9
2018-Jun-16 11:00N 47°43' W 003°22'3 5.1
2018-Jun-16 10:25N 47°41' W 003°25'0 0.4
2018-Jun-16 09:51N 47°41' W 003°26'0 1.3
2018-Jun-16 09:30N 47°41' W 003°25'2 3.5
2018-Jun-16 08:58N 47°42' W 003°28'2 3.6
2018-Jun-16 08:27N 47°40' W 003°27'0 0.7
2018-Jun-16 07:49N 47°40' W 003°28'3 2.1
2018-Jun-16 06:18N 47°37' W 003°29'2 5.1
2018-Jun-16 06:00N 47°37' W 003°27'1 1.3
2018-Jun-16 05:30N 47°37' W 003°26'1 1.8
2018-Jun-16 05:00N 47°38' W 003°25'0 0.8
2018-Jun-16 04:25N 47°38' W 003°24'2 5.4
2018-Jun-16 04:00N 47°40' W 003°26'3 4.7
2018-Jun-16 03:26N 47°42' W 003°28'1 2.3
2018-Jun-16 02:56N 47°41' W 003°29'2 4.8
2018-Jun-16 02:29N 47°41' W 003°25'2 3.3
2018-Jun-16 02:00N 47°42' W 003°27'3 6.7
2018-Jun-16 01:30N 47°42' W 003°22'2 0.1
2018-Jun-15 11:27N 47°44' W 003°22'  
Track history (hours):
 
Tides and Currents Weather Stations Pressure Air Temp Water Temp Dewpoint Dewpoint Depression Visibility Wind Speed Wind Dir Waves Ship Positions

Christialou

Last reported at 2018-Jun-25 11:24 UTC. Time now 2018-Jun-25 15:53 UTC.
Position N 47°44' W 003°22'.

Length 9 m.

Type: Fishing. MMSI: 227629670.

Date/timePositionNaut miles runAvg speedWind from/ knotsBaromVisibWave heightAir tempDewpointWater temp
2018-Jun-25 11:24N 47°44' W 003°22'0 0.1
2018-Jun-25 11:00N 47°44' W 003°22'4 7.1
2018-Jun-25 10:28N 47°41' W 003°26'5 1.3
2018-Jun-25 06:58N 47°37' W 003°29'1 1.5
2018-Jun-25 06:28N 47°37' W 003°27'3 3.4
2018-Jun-25 05:41N 47°36' W 003°31'1 3.4
2018-Jun-25 05:23N 47°37' W 003°30'1 2.4
2018-Jun-25 04:58N 47°36' W 003°31'6 2.3
2018-Jun-25 02:24N 47°41' W 003°27'3 7.9
2018-Jun-25 02:00N 47°42' W 003°23'2 0.1
2018-Jun-23 12:23N 47°44' W 003°22'0 0.1
2018-Jun-23 11:59N 47°44' W 003°22'3 6.9
2018-Jun-23 11:30N 47°41' W 003°25'2 0.5
2018-Jun-23 07:38N 47°41' W 003°28'1 8.5
2018-Jun-23 07:28N 47°40' W 003°26'3 5.8
2018-Jun-23 07:00N 47°37' W 003°24'1 1.0
2018-Jun-23 06:24N 47°37' W 003°25'1 2.7
2018-Jun-23 06:00N 47°37' W 003°27'5 1.3
2018-Jun-23 02:34N 47°41' W 003°30'2 6.2
2018-Jun-23 02:18N 47°42' W 003°28'1 3.4
2018-Jun-23 02:00N 47°41' W 003°28'4 8.1
2018-Jun-23 01:30N 47°42' W 003°22'2 0.1
2018-Jun-22 11:45N 47°44' W 003°22'0 0.2
2018-Jun-22 11:30N 47°44' W 003°22'3 6.5
2018-Jun-22 11:00N 47°41' W 003°25'6 2.0
2018-Jun-22 08:02N 47°37' W 003°30'0 6.3
2018-Jun-22 07:59N 47°37' W 003°30'2 2.5
2018-Jun-22 07:14N 47°36' W 003°27'0 0.2
2018-Jun-22 06:58N 47°37' W 003°27'2 4.9
2018-Jun-22 06:30N 47°38' W 003°24'0 0.6
2018-Jun-22 05:59N 47°37' W 003°25'3 6.2
2018-Jun-22 05:28N 47°41' W 003°26'4 1.2
2018-Jun-22 02:18N 47°40' W 003°31'2 8.1
2018-Jun-22 02:00N 47°41' W 003°28'4 8.3
2018-Jun-22 01:30N 47°42' W 003°22'2 0.1
2018-Jun-21 12:26N 47°44' W 003°22'0 1.1
2018-Jun-21 12:00N 47°43' W 003°22'3 6.7
2018-Jun-21 11:29N 47°41' W 003°26'4 1.5
2018-Jun-21 08:45N 47°37' W 003°28'1 2.8
2018-Jun-21 08:29N 47°37' W 003°27'1 1.6
2018-Jun-21 07:57N 47°36' W 003°26'1 1.7
2018-Jun-21 07:29N 47°37' W 003°25'0 0.8
2018-Jun-21 07:00N 47°37' W 003°25'4 1.0
2018-Jun-21 02:48N 47°40' W 003°28'3 8.7
2018-Jun-21 02:29N 47°41' W 003°25'3 6.1
2018-Jun-21 02:00N 47°44' W 003°22'0 0.0
2018-Jun-20 11:46N 47°44' W 003°22'0 0.2
2018-Jun-20 11:28N 47°44' W 003°22'2 5.1
2018-Jun-20 11:00N 47°42' W 003°23'6 2.2
2018-Jun-20 08:19N 47°36' W 003°28'1 2.7
2018-Jun-20 08:00N 47°36' W 003°27'0 0.7
2018-Jun-20 07:31N 47°36' W 003°26'2 3.1
2018-Jun-20 06:59N 47°38' W 003°25'0 0.4
2018-Jun-20 06:28N 47°38' W 003°24'5 3.4
2018-Jun-20 04:54N 47°41' W 003°30'1 0.7
2018-Jun-20 03:11N 47°40' W 003°31'1 7.8
2018-Jun-20 03:00N 47°40' W 003°29'4 7.6
2018-Jun-20 02:30N 47°42' W 003°24'2 4.7
2018-Jun-20 02:00N 47°44' W 003°22'0 0.0
2018-Jun-19 12:46N 47°44' W 003°22'0 0.0
2018-Jun-19 12:30N 47°44' W 003°22'1 2.7
2018-Jun-19 11:59N 47°42' W 003°22'4 5.8
2018-Jun-19 11:18N 47°41' W 003°28'1 0.5
2018-Jun-19 08:34N 47°41' W 003°30'0 3.6
2018-Jun-19 08:30N 47°41' W 003°29'3 5.1
2018-Jun-19 07:53N 47°39' W 003°25'1 3.7
2018-Jun-19 07:30N 47°38' W 003°25'0 0.8
2018-Jun-19 06:57N 47°37' W 003°25'1 2.5
2018-Jun-19 06:30N 47°37' W 003°27'3 3.0
2018-Jun-19 05:35N 47°36' W 003°30'5 2.0
2018-Jun-19 03:08N 47°41' W 003°29'1 7.5
2018-Jun-19 02:59N 47°40' W 003°28'2 3.4
2018-Jun-19 02:29N 47°42' W 003°28'3 6.7
2018-Jun-19 02:00N 47°42' W 003°23'  
2018-Jun-16 11:29N 47°44' W 003°22'1 1.9
2018-Jun-16 11:00N 47°43' W 003°22'3 5.1
2018-Jun-16 10:25N 47°41' W 003°25'0 0.4
2018-Jun-16 09:51N 47°41' W 003°26'0 1.3
2018-Jun-16 09:30N 47°41' W 003°25'2 3.5
2018-Jun-16 08:58N 47°42' W 003°28'2 3.6
2018-Jun-16 08:27N 47°40' W 003°27'0 0.7
2018-Jun-16 07:49N 47°40' W 003°28'3 2.1
2018-Jun-16 06:18N 47°37' W 003°29'2 5.1
2018-Jun-16 06:00N 47°37' W 003°27'1 1.3
2018-Jun-16 05:30N 47°37' W 003°26'1 1.8
2018-Jun-16 05:00N 47°38' W 003°25'0 0.8
2018-Jun-16 04:25N 47°38' W 003°24'2 5.4
2018-Jun-16 04:00N 47°40' W 003°26'3 4.7
2018-Jun-16 03:26N 47°42' W 003°28'1 2.3
2018-Jun-16 02:56N 47°41' W 003°29'2 4.8
2018-Jun-16 02:29N 47°41' W 003°25'2 3.3
2018-Jun-16 02:00N 47°42' W 003°27'3 6.7
2018-Jun-16 01:30N 47°42' W 003°22'2 0.1
2018-Jun-15 11:27N 47°44' W 003°22'  

Dump ship's entire track history